Terminal Aerodrome Forecast
Issued by NWS

Home | Current Version | Previous Version | Text Only | Print | Product List | Glossary On
Versions: 1 2 3 4 5 6 7 8 9 10 11 12 13 14 15 16 17 18 19 20
531
FTUS43 KGRB 271741
TAFMTW
TAF
KMTW 271741Z 2718/2818 26012G20KT P6SM VCSH BKN035
     FM272100 27011KT P6SM -SHRA BKN030
     FM280500 29006KT 6SM -SHRA BR BKN025
     FM281000 01010KT 5SM -SHRA OVC014
     FM281500 03014G25KT P6SM VCSH OVC016=

USA.gov is the U.S. government's official web portal to all federal, state and local government web resources and services.